Sierra Nevada Aquatic Research Lab (SNARL) Reserve, California Weather observations

Data are for 10 minute period ending at time listed.
 Day   Time   Solar   Ave.   Ave.  Ave.  Vector  Max.   Baro.   Total    
  of    of     Rad.   Air    Rel.  Wind   Wind   Wind  Press.  Precip.   
Year   Day            Temp.  Hum.  Speed  Dir.   Gust                    
2017   (PST)  Kw/m2    F      %     mph   deg.    mph    mb.     in.     
-------------------------------------------------------------------------
  83   17:00   0.02   36.2    82   12.8   231    20.6   785.9    0.02 
  83   17:10   0.03   36.1    83   13.3   214    25.1   785.7    0.02 
  83   17:20   0.03   36.2    82   15.0   217    21.0   785.4    0.01 
  83   17:30   0.03   37.0    79   11.5   250    20.5   785.4    0.00 
  83   17:40   0.02   35.7    85    8.2   309    12.5   785.5    0.00 
  83   17:50   0.01   33.9    91    4.6   266     8.2   785.5    0.01 
  83   18:00   0.01   33.4    94    4.3   247     8.0   785.5    0.00 
  83   18:10   0.00   33.4    94    4.4   230     7.9   785.5    0.00 
  83   18:20   0.00   33.8    93    3.0   137     5.8   785.4    0.00 
  83   18:30   0.00   33.7    93    3.3   197     5.8   785.5    0.00 
  83   18:40   0.00   34.1    92    3.2   116     7.7   785.7    0.00 
  83   18:50   0.00   33.9    92    3.3    84     5.7   785.6    0.00 
  83   19:00   0.00   33.7    93    2.9   131     4.5   785.7    0.00 
  83   19:10   0.00   34.2    92    0.9    35     3.2   785.6    0.00 
  83   19:20   0.00   34.1    92    0.6   153     2.4   785.5    0.00 
  83   19:30   0.00   33.7    93    0.7   124     3.6   785.7    0.00 
  83   19:40   0.00   33.9    92    2.1    14     4.9   785.5    0.00 
  83   19:50   0.00   33.6    93    2.0    24     4.8   785.5    0.00 
  83   20:00   0.00   33.5    92    1.9   230     3.3   785.5    0.00 
  83   20:10   0.00   33.6    92    3.1   236     5.6   785.5    0.00 
  83   20:20   0.00   34.4    87    4.0   255     7.6   785.4    0.00 
  83   20:30   0.00   34.1    88    6.7   212     8.9   785.2    0.00 
  83   20:40   0.00   34.2    87    6.4   245    11.0   785.2    0.00 
  83   20:50   0.00   34.5    85    6.1   218    10.7   785.3    0.00 
  83   21:00   0.00   34.5    86    2.0   334     3.9   785.4    0.00 
  83   21:10   0.00   33.9    89    4.3    76     8.4   785.2    0.00 
  83   21:20   0.00   33.2    93    3.2    42     6.0   785.2    0.00 
  83   21:30   0.00   32.9    94    2.6    19     5.6   785.2    0.00 
  83   21:40   0.00   32.9    94    1.6   339     3.8   785.2    0.00 
  83   21:50   0.00   32.8    94    2.4   329     5.5   785.1    0.00 
  83   22:00   0.00   32.6    95    1.6   359     4.2   784.9    0.00 
  83   22:10   0.00   32.4    96    1.4    21     4.5   784.7    0.00 
  83   22:20   0.00   34.5    79    9.0   237    14.5   784.5    0.00 
  83   22:30   0.00   37.7    62   13.1   224    18.0   784.4    0.00 
  83   22:40   0.00   38.3    59   11.0   232    16.8   784.3    0.00 
  83   22:50   0.00   38.1    61   13.2   232    19.2   784.1    0.00 
  83   23:00   0.00   38.1    61   12.6   235    19.7   784.1    0.00 
  83   23:10   0.00   38.4    54   12.7   219    20.2   784.0    0.00 
  83   23:20   0.00   38.5    46   13.4   204    19.7   783.8    0.00 
  83   23:30   0.00   39.1    39   12.9   210    24.5   783.8    0.00 
  83   23:40   0.00   38.0    55    9.9   260    23.5   783.8    0.00 
  83   23:50   0.00   35.1    76    3.0   354     6.4   783.8    0.00 
  84    0:00   0.00   33.0    86    1.7   312     6.4   783.8    0.00 
  84    0:10   0.00   33.5    78    3.1   278     5.4   783.8    0.00 
  84    0:20   0.00   34.2    74    1.6    16     5.0   783.8    0.00 
  84    0:30   0.00   33.2    77    2.2   141     4.7   783.7    0.00 
  84    0:40   0.00   34.1    68    4.8   247     9.9   783.5    0.00 
  84    0:50   0.00   34.9    67    8.1   269    12.9   783.4    0.00 
  84    1:00   0.00   35.0    67    9.6   264    15.4   783.3    0.00 
  84    1:10   0.00   35.0    67    9.8   273    14.3   783.3    0.00 
  84    1:20   0.00   35.0    68    8.9   274    15.2   783.3    0.00 
  84    1:30   0.00   34.6    71    5.4   314     8.8   783.3    0.00 
  84    1:40   0.00   34.0    73    2.4   324     4.8   783.2    0.00 
  84    1:50   0.00   33.6    73    1.9   177     5.5   783.2    0.00 
  84    2:00   0.00   33.9    70    2.9   315     8.1   783.1    0.00 
  84    2:10   0.00   34.7    65    8.4   263    14.8   782.9    0.00 
  84    2:20   0.00   35.0    65    3.6   313     9.3   782.7    0.00 
  84    2:30   0.00   33.7    70    2.7    69     4.7   782.6    0.00 
  84    2:40   0.00   32.9    73    1.5   268     5.1   782.5    0.00 
  84    2:50   0.00   32.1    75    3.9   259     6.4   782.4    0.00 
  84    3:00   0.00   32.3    73    3.9   280     9.9   782.4    0.00 
  84    3:10   0.00   33.2    69    7.1   277    13.9   782.2    0.00 
  84    3:20   0.00   34.8    62   11.7   245    19.3   782.1    0.00 
  84    3:30   0.00   35.8    58   11.8   252    17.8   782.1    0.00 
  84    3:40   0.00   36.2    57    9.0   257    14.2   782.1    0.00 
  84    3:50   0.00   35.9    59    6.8   271    11.7   782.1    0.00 
  84    4:00   0.00   35.5    60    7.4   281    11.3   782.1    0.00 
  84    4:10   0.00   34.4    66    7.0   278    10.8   782.2    0.00 
  84    4:20   0.00   33.8    71    7.9   270    14.2   782.2    0.00 
  84    4:30   0.00   33.5    75    9.9   270    14.8   782.2    0.00 
  84    4:40   0.00   32.8    81   10.9   279    18.7   782.2    0.00 
  84    4:50   0.00   32.5    84   14.0   285    21.6   782.2    0.00 
  84    5:00   0.00   32.2    87   10.9   279    18.3   782.3    0.00 
  84    5:10   0.00   32.4    85   11.6   282    18.1   782.2    0.00 
  84    5:20   0.00   33.6    75   11.0   239    15.0   782.1    0.00 
  84    5:30   0.00   33.9    73   10.8   225    13.4   782.0    0.00 
  84    5:40   0.00   33.3    78    7.3   279    11.7   782.2    0.00 
  84    5:50   0.00   32.0    85    6.0   258     9.8   782.4    0.00 
  84    6:00   0.00   31.7    84    5.1   194     8.5   782.4    0.00 
  84    6:10   0.01   31.7    80    2.8   176     6.3   782.4    0.00 
  84    6:20   0.01   31.7    79    5.1    79    11.8   782.4    0.00 
  84    6:30   0.03   30.9    83    6.6   103    11.1   782.6    0.00 
  84    6:40   0.13   32.6    79    2.7    97     7.0   782.7    0.00 
  84    6:50   0.19   36.8    68    0.6   100     2.5   782.7    0.00 
  84    7:00   0.23   38.1    65    2.3    19     4.7   782.8    0.00 
  84    7:10   0.26   37.2    69    1.9   356     4.7   783.0    0.00 
  84    7:20   0.27   37.6    67    1.4   237     3.1   783.1    0.00 
  84    7:30   0.36   39.3    64    1.1   215     2.6   783.1    0.00 
  84    7:40   0.24   38.6    65    2.2   205     3.9   783.1    0.00 
  84    7:50   0.48   39.1    62    4.4   271    10.7   783.1    0.00 
  84    8:00   0.45   39.1    61    7.2   272    12.0   783.2    0.00 
  84    8:10   0.53   39.1    61    8.1   278    14.7   783.2    0.00 
  84    8:20   0.57   38.3    63    9.3   280    13.5   783.2    0.00 
  84    8:30   0.65   38.9    62    8.1   283    15.1   783.2    0.00 
  84    8:40   0.71   40.2    60    7.6   283    12.9   783.2    0.00 
  84    8:50   0.78   40.2    60    8.3   274    14.3   783.3    0.00 
  84    9:00   0.67   40.3    59    8.8   269    13.3   783.3    0.00 
  84    9:10   0.83   40.4    60   10.3   258    16.3   783.4    0.00 
  84    9:20   0.79   39.9    60   10.9   258    16.2   783.4    0.00 
  84    9:30   0.76   41.1    57    7.9   263    12.7   783.4    0.00 
  84    9:40   0.55   39.1    61    8.9   243    13.2   783.4    0.00 
  84    9:50   0.81   40.0    58    8.3   240    12.3   783.3    0.00 
  84   10:00   0.83   40.8    57    7.3   232     9.9   783.3    0.00 
  84   10:10   0.86   41.3    56    7.4   232    10.3   783.2    0.00 
  84   10:20   0.83   41.2    56    6.3   221     9.3   783.1    0.00 
  84   10:30   0.84   41.6    54    5.4   225     7.5   783.1    0.00 
  84   10:40   0.86   42.1    54    5.3   228     7.0   783.0    0.00 
  84   10:50   0.88   42.9    52    4.0   217     6.2   782.9    0.00 
  84   11:00   0.89   43.3    52    5.2   224     7.5   782.8    0.00 
  84   11:10   0.90   44.4    49    3.3   201     5.2   782.8    0.00 
  84   11:20   0.92   45.0    48    3.5   166     6.2   782.7    0.00 
  84   11:30   0.92   45.3    47    3.9   136     5.8   782.7    0.00 
  84   11:40   0.93   44.3    48    4.8    98     7.3   782.6    0.00 
  84   11:50   0.92   43.2    49    5.0   105     6.8   782.6    0.00 
  84   12:00   0.93   43.2    49    5.9    92     7.5   782.5    0.00 
  84   12:10   0.92   42.7    51    5.9    99     8.3   782.5    0.00 
  84   12:20   0.91   43.0    50    5.7   111     8.5   782.5    0.00 
  84   12:30   0.92   43.5    50    5.4   119     7.7   782.4    0.00 
  84   12:40   0.92   43.6    49    5.0   108     6.8   782.3    0.00 
  84   12:50   0.91   43.6    48    4.9   101     6.1   782.2    0.00 
  84   13:00   0.88   44.9    45    3.3   105     5.0   782.2    0.00 
  84   13:10   0.88   45.7    43    2.9   106     4.3   782.2    0.00 
  84   13:20   0.88   46.7    44    2.7   142     3.9   782.2    0.00 
  84   13:30   0.86   47.7    43    2.7   141     3.4   782.2    0.00 
  84   13:40   0.85   47.7    42    2.5   162     3.4   782.0    0.00 
  84   13:50   0.59   47.7    39    2.1   140     4.1   782.0    0.00 
  84   14:00   0.69   46.0    42    4.1   102     5.7   781.9    0.00 
  84   14:10   0.77   45.4    42    4.0    86     7.9   781.9    0.00 
  84   14:20   0.76   48.2    34    3.1   277     8.3   781.8    0.00 
  84   14:30   0.73   48.0    34    4.3   234    10.6   781.8    0.00 
  84   14:40   0.70   48.3    24    4.1   263     7.5   781.6    0.00 
  84   14:50   0.68   49.6    24    3.3   246     7.7   781.7    0.00 
  84   15:00   0.65   48.6    26    4.9   306     9.4   781.8    0.00 
  84   15:10   0.62   49.3    30    3.7   297     8.3   781.8    0.00 
  84   15:20   0.58   48.8    31    4.4   281     8.0   781.7    0.00 
  84   15:30   0.51   47.8    36    6.8   278    12.3   781.7    0.00 
  84   15:40   0.51   46.0    40    7.5   279    11.5   781.7    0.00 
  84   15:50   0.48   47.1    40    6.0   273    11.4   781.7    0.00 
  84   16:00   0.44   46.3    42    6.8   256    10.6   781.7    0.00 
  84   16:10   0.40   46.3    40    7.5   254    11.6   781.8    0.00 
  84   16:20   0.33   45.6    41    7.2   247    10.7   781.8    0.00 
  84   16:30   0.35   45.2    39    7.2   242    10.3   781.6    0.00 
  84   16:40   0.32   45.0    40    7.0   239    10.2   781.6    0.00 
  84   16:50   0.21   44.1    39    7.6   239    11.5   781.6    0.00 

Return to SNARL Reserve graphs page.


Western Regional Climate Center,wrcc@dri.edu